createdAt,value
2019-02-15T00:01:51.109Z,64.38
2019-02-15T00:04:26.072Z,65.35
2019-02-15T00:07:01.060Z,64.43
2019-02-15T00:09:36.007Z,66.33
2019-02-15T00:12:10.963Z,67.01
2019-02-15T00:14:48.544Z,67.59
2019-02-15T00:17:57.989Z,67.59
2019-02-15T00:20:36.670Z,67.59
2019-02-15T00:23:11.591Z,67.27
2019-02-15T00:25:45.373Z,65.95
2019-02-15T00:28:19.820Z,69.52
2019-02-15T00:30:54.485Z,67.30
2019-02-15T00:33:29.206Z,67.96
2019-02-15T00:36:03.788Z,67.96
2019-02-15T00:38:38.499Z,66.61
2019-02-15T00:41:13.141Z,68.25
2019-02-15T00:43:47.835Z,68.25
2019-02-15T00:46:37.103Z,69.77
2019-02-15T00:49:17.997Z,69.83
2019-02-15T00:52:18.030Z,69.58
2019-02-15T00:55:10.885Z,69.35
2019-02-15T00:58:03.949Z,69.60
2019-02-15T01:00:58.540Z,69.35
2019-02-15T01:03:51.557Z,66.48
2019-02-15T01:08:13.049Z,68.53
2019-02-15T01:11:13.028Z,68.57
2019-02-15T01:13:47.658Z,69.09
2019-02-15T01:16:21.270Z,68.76
2019-02-15T01:18:55.647Z,69.59
2019-02-15T01:21:29.272Z,70.53
2019-02-15T01:24:03.732Z,70.15
2019-02-15T01:26:49.477Z,70.41
2019-02-15T01:29:33.988Z,70.84
2019-02-15T01:32:46.687Z,70.84
2019-02-15T01:35:45.996Z,68.41
2019-02-15T01:38:37.970Z,68.13
2019-02-15T01:41:32.452Z,67.22
2019-02-15T01:44:22.801Z,68.13
2019-02-15T01:47:01.876Z,71.29
2019-02-15T01:49:36.792Z,72.08
2019-02-15T01:52:12.655Z,71.00
2019-02-15T01:54:47.615Z,69.51
2019-02-15T01:57:22.667Z,69.00
2019-02-15T01:59:56.467Z,71.72
2019-02-15T02:02:31.225Z,72.06
2019-02-15T02:05:06.573Z,72.06
2019-02-15T02:07:42.144Z,71.97
2019-02-15T02:10:17.439Z,71.91
2019-02-15T02:12:52.062Z,69.90
2019-02-15T02:15:26.964Z,70.08
2019-02-15T02:18:01.732Z,70.14
2019-02-15T02:21:47.054Z,68.47
2019-02-15T02:24:22.061Z,67.83
2019-02-15T02:26:56.938Z,68.12
2019-02-15T02:29:31.831Z,68.29
2019-02-15T02:32:06.808Z,67.11
2019-02-15T02:34:42.318Z,67.75
2019-02-15T02:37:17.169Z,69.61
2019-02-15T02:39:53.011Z,70.07
2019-02-15T02:42:29.856Z,69.00
2019-02-15T02:45:05.049Z,68.93
2019-02-15T02:47:41.553Z,69.51
2019-02-15T02:50:18.653Z,69.54
2019-02-15T02:52:52.734Z,69.54
2019-02-15T02:55:27.579Z,69.82
2019-02-15T02:58:02.153Z,73.58
2019-02-15T03:00:37.323Z,73.58
2019-02-15T03:03:12.135Z,73.08
2019-02-15T03:05:46.915Z,74.00
2019-02-15T03:08:21.713Z,73.19
2019-02-15T03:10:56.549Z,71.84
2019-02-15T03:13:31.451Z,70.21
2019-02-15T03:16:06.691Z,70.21
2019-02-15T03:18:41.637Z,70.77
2019-02-15T03:22:43.043Z,69.55
2019-02-15T03:25:21.183Z,70.96
2019-02-15T03:27:56.053Z,70.03
2019-02-15T03:30:31.182Z,70.11
2019-02-15T03:33:07.534Z,69.40
2019-02-15T03:35:54.593Z,69.43
2019-02-15T03:38:45.713Z,69.43
2019-02-15T03:41:26.477Z,68.67
2019-02-15T03:44:00.814Z,69.37
2019-02-15T03:46:35.312Z,68.95
2019-02-15T03:49:09.642Z,68.53
2019-02-15T03:51:43.623Z,70.00
2019-02-15T03:54:18.173Z,68.57
2019-02-15T03:56:52.675Z,68.57
2019-02-15T03:59:27.031Z,69.60
2019-02-15T04:02:01.542Z,69.60
2019-02-15T04:04:38.543Z,69.12
2019-02-15T04:07:12.784Z,69.12
2019-02-15T04:09:47.039Z,69.35
2019-02-15T04:12:21.691Z,69.17
2019-02-15T04:14:55.598Z,70.26
2019-02-15T04:17:30.330Z,70.75
2019-02-15T04:20:06.648Z,70.75
2019-02-15T04:22:40.855Z,69.46
2019-02-15T04:25:15.669Z,69.13
2019-02-15T04:27:50.342Z,69.86
2019-02-15T04:30:24.787Z,70.80
2019-02-15T04:32:59.608Z,71.02
2019-02-15T04:35:34.182Z,72.44
2019-02-15T04:38:09.054Z,72.44
2019-02-15T04:40:44.535Z,73.29
2019-02-15T04:43:19.320Z,75.27
2019-02-15T04:45:53.956Z,75.27
2019-02-15T04:48:29.638Z,73.24
2019-02-15T04:51:05.592Z,70.71
2019-02-15T04:53:40.155Z,70.75
2019-02-15T04:56:14.785Z,71.12
2019-02-15T04:58:49.443Z,69.78
2019-02-15T05:01:24.354Z,70.01
2019-02-15T05:03:59.172Z,69.24
2019-02-15T05:06:33.940Z,70.24
2019-02-15T05:09:08.873Z,70.02
2019-02-15T05:11:43.661Z,68.80
2019-02-15T05:14:18.184Z,69.55
2019-02-15T05:16:53.337Z,69.55
2019-02-15T05:19:28.161Z,71.04
2019-02-15T05:22:02.976Z,70.86
2019-02-15T05:24:37.792Z,72.55
2019-02-15T05:27:12.568Z,71.53
2019-02-15T05:29:47.527Z,71.94
2019-02-15T05:32:25.315Z,71.94
2019-02-15T05:35:00.291Z,71.81
2019-02-15T05:37:35.776Z,71.80
2019-02-15T05:40:10.313Z,70.90
2019-02-15T05:42:45.044Z,68.87
2019-02-15T05:45:20.448Z,69.70
2019-02-15T05:47:55.050Z,70.57
2019-02-15T05:50:29.800Z,70.89
2019-02-15T05:53:04.648Z,71.44
2019-02-15T05:55:39.332Z,70.97
2019-02-15T05:58:14.456Z,70.97
2019-02-15T06:00:49.508Z,71.35
2019-02-15T06:03:23.526Z,70.64
2019-02-15T06:05:58.070Z,72.18
2019-02-15T06:08:32.826Z,72.18
2019-02-15T06:11:08.370Z,70.75
2019-02-15T06:13:43.882Z,70.64
2019-02-15T06:16:20.097Z,69.50
2019-02-15T06:18:55.026Z,70.35
2019-02-15T06:21:29.998Z,71.30
2019-02-15T06:24:05.000Z,71.56
2019-02-15T06:26:39.568Z,72.21
2019-02-15T06:29:13.749Z,72.44
2019-02-15T06:31:49.040Z,74.26
2019-02-15T06:34:24.120Z,75.23
2019-02-15T06:36:59.127Z,73.98
2019-02-15T06:39:33.873Z,74.58
2019-02-15T06:42:09.049Z,73.30
2019-02-15T06:44:44.833Z,72.58
2019-02-15T06:47:19.735Z,70.09
2019-02-15T06:49:53.514Z,69.39
2019-02-15T06:52:28.671Z,69.79
2019-02-15T06:55:03.000Z,69.79
2019-02-15T06:57:39.115Z,70.37
2019-02-15T07:00:30.509Z,70.98
2019-02-15T07:03:23.846Z,73.83
2019-02-15T07:05:58.919Z,73.83
2019-02-15T07:08:33.606Z,75.70
2019-02-15T07:11:07.514Z,74.02
2019-02-15T07:13:44.555Z,74.21
2019-02-15T07:16:19.527Z,72.42
2019-02-15T07:18:53.968Z,70.28
2019-02-15T07:21:28.941Z,69.71
2019-02-15T07:24:03.946Z,69.97
2019-02-15T07:26:38.548Z,69.14
2019-02-15T07:29:13.061Z,69.14
2019-02-15T07:31:47.627Z,71.03
2019-02-15T07:34:21.584Z,69.89
2019-02-15T07:36:56.559Z,71.21
2019-02-15T07:39:31.504Z,71.21
2019-02-15T07:42:06.310Z,72.53
2019-02-15T07:44:41.179Z,72.53
2019-02-15T07:47:16.066Z,71.71
2019-02-15T07:49:50.929Z,71.42
2019-02-15T07:52:25.726Z,71.62
2019-02-15T07:55:01.576Z,70.04
2019-02-15T07:57:35.736Z,70.09
2019-02-15T08:00:13.107Z,68.06
2019-02-15T08:02:48.059Z,66.48
2019-02-15T08:05:23.605Z,68.23
2019-02-15T08:07:58.705Z,70.23
2019-02-15T08:10:33.528Z,69.42
2019-02-15T08:13:08.051Z,70.02
2019-02-15T08:15:51.302Z,68.04
2019-02-15T08:18:20.276Z,66.53
2019-02-15T08:20:55.310Z,66.23
2019-02-15T08:23:30.431Z,65.46
2019-02-15T08:26:05.325Z,65.86
2019-02-15T08:28:40.151Z,67.41
2019-02-15T08:31:16.866Z,68.72
2019-02-15T08:33:52.020Z,66.73
2019-02-15T08:36:27.042Z,66.85
2019-02-15T08:39:02.337Z,65.49
2019-02-15T08:41:38.568Z,65.39
2019-02-15T08:44:12.500Z,63.07
2019-02-15T08:46:46.612Z,61.77
2019-02-15T08:49:21.061Z,53.15
2019-02-15T08:51:56.050Z,47.00
2019-02-15T08:54:31.129Z,42.26
2019-02-15T08:57:06.323Z,44.13
2019-02-15T08:59:42.657Z,39.92
2019-02-15T09:02:23.583Z,34.48
2019-02-15T09:04:58.387Z,31.54
2019-02-15T09:07:36.299Z,28.92
2019-02-15T09:10:22.105Z,28.92
2019-02-15T09:12:57.437Z,26.79
2019-02-15T09:15:32.107Z,27.53
2019-02-15T09:18:06.699Z,25.27
2019-02-15T09:20:41.305Z,23.58
2019-02-15T09:23:16.470Z,23.73
2019-02-15T09:25:51.027Z,24.81
2019-02-15T09:28:31.677Z,24.81
2019-02-15T09:31:07.445Z,24.34
2019-02-15T09:33:43.516Z,23.22
2019-02-15T09:36:20.318Z,23.22
2019-02-15T09:39:00.375Z,22.04
2019-02-15T09:41:37.852Z,21.92
2019-02-15T09:44:14.834Z,22.12
2019-02-15T09:46:52.634Z,23.25
2019-02-15T09:49:26.841Z,22.99
2019-02-15T09:52:01.883Z,22.76
2019-02-15T09:54:36.183Z,23.08
2019-02-15T09:57:18.988Z,22.87
2019-02-15T09:59:55.064Z,22.69
2019-02-15T10:02:30.083Z,23.35
2019-02-15T10:05:08.601Z,22.50
2019-02-15T10:07:43.807Z,24.23
2019-02-15T10:10:18.798Z,26.41
2019-02-15T10:12:53.114Z,26.54
2019-02-15T10:15:28.909Z,26.40
2019-02-15T10:18:03.986Z,25.50
2019-02-15T10:20:39.130Z,24.15
2019-02-15T10:23:14.168Z,23.04
2019-02-15T10:25:48.784Z,22.39
2019-02-15T10:28:24.043Z,22.20
2019-02-15T10:30:59.567Z,21.32
2019-02-15T10:33:33.677Z,20.97
2019-02-15T10:36:08.997Z,20.99
2019-02-15T10:38:44.774Z,20.29
2019-02-15T10:41:21.558Z,20.16
2019-02-15T10:43:57.868Z,19.94
2019-02-15T10:46:37.778Z,19.66
2019-02-15T10:49:11.793Z,19.40
2019-02-15T10:51:46.431Z,19.56
2019-02-15T10:54:21.443Z,19.58
2019-02-15T10:56:56.979Z,20.39
2019-02-15T11:02:05.312Z,20.32
2019-02-15T11:04:41.144Z,20.48
2019-02-15T11:07:15.994Z,20.30
2019-02-15T11:09:51.610Z,20.46
2019-02-15T11:12:25.432Z,19.96
2019-02-15T11:15:00.726Z,20.75
2019-02-15T11:17:35.332Z,20.75
2019-02-15T11:20:12.693Z,20.34
2019-02-15T11:22:47.584Z,20.64
2019-02-15T11:25:21.606Z,19.05
2019-02-15T11:27:55.945Z,17.98
2019-02-15T11:30:30.748Z,19.01
2019-02-15T11:33:05.308Z,18.85
2019-02-15T11:35:39.964Z,17.47
2019-02-15T11:38:15.678Z,18.17
2019-02-15T11:40:50.070Z,17.46
2019-02-15T11:43:24.954Z,17.79
2019-02-15T11:46:00.019Z,17.07
2019-02-15T11:48:34.301Z,17.17
2019-02-15T11:51:08.823Z,17.26
2019-02-15T11:53:43.503Z,16.75
2019-02-15T11:56:17.257Z,16.16
2019-02-15T11:58:51.475Z,15.53
2019-02-15T12:01:26.027Z,15.91
2019-02-15T12:04:00.848Z,15.82
2019-02-15T12:06:37.315Z,15.02
2019-02-15T12:09:12.172Z,14.94
2019-02-15T12:11:46.825Z,14.87
2019-02-15T12:14:21.939Z,14.28
2019-02-15T12:17:05.271Z,14.48
2019-02-15T12:19:32.359Z,14.33
2019-02-15T12:22:07.100Z,14.33
2019-02-15T12:24:41.856Z,14.08
2019-02-15T12:27:16.445Z,14.21
2019-02-15T12:29:51.327Z,14.23
2019-02-15T12:32:25.896Z,14.22
2019-02-15T12:35:00.454Z,14.26
2019-02-15T12:37:35.075Z,15.32
2019-02-15T12:40:09.853Z,15.32
2019-02-15T12:42:44.552Z,15.53
2019-02-15T12:45:19.343Z,15.27
2019-02-15T12:47:54.490Z,15.27
2019-02-15T12:50:29.294Z,14.60
2019-02-15T12:53:03.661Z,15.81
2019-02-15T12:55:38.050Z,16.59
2019-02-15T12:58:12.942Z,17.48
2019-02-15T13:00:47.509Z,18.39
2019-02-15T13:03:22.630Z,18.17
2019-02-15T13:06:00.280Z,18.17
2019-02-15T13:08:35.093Z,17.90
2019-02-15T13:11:09.707Z,19.20
2019-02-15T13:13:44.053Z,19.92
2019-02-15T13:16:18.839Z,21.00
2019-02-15T13:18:53.637Z,20.59
2019-02-15T13:21:27.259Z,20.32
2019-02-15T13:24:01.950Z,20.08
2019-02-15T13:26:36.715Z,20.19
2019-02-15T13:29:11.614Z,19.74
2019-02-15T13:31:45.849Z,19.84
2019-02-15T13:34:20.585Z,19.84
2019-02-15T13:36:55.134Z,20.17
2019-02-15T13:39:29.823Z,20.08
2019-02-15T13:42:04.644Z,20.23
2019-02-15T13:44:38.482Z,20.01
2019-02-15T13:47:13.069Z,19.69
2019-02-15T13:49:47.605Z,19.69
2019-02-15T13:52:21.269Z,18.30
2019-02-15T13:54:55.740Z,19.31
2019-02-15T13:57:30.047Z,19.21
2019-02-15T14:00:05.068Z,18.56
2019-02-15T14:02:40.994Z,18.85
2019-02-15T14:05:15.593Z,19.19
2019-02-15T14:07:49.963Z,19.22
2019-02-15T14:10:24.820Z,19.22
2019-02-15T14:13:45.102Z,19.40
2019-02-15T14:16:55.403Z,18.89
2019-02-15T14:20:42.743Z,18.89
2019-02-15T14:23:47.067Z,19.70
2019-02-15T14:26:25.313Z,19.24
2019-02-15T14:28:59.627Z,19.67
2019-02-15T14:31:33.434Z,19.88
2019-02-15T14:34:07.774Z,20.04
2019-02-15T14:36:42.147Z,19.65
2019-02-15T14:39:16.707Z,19.42
2019-02-15T14:41:50.693Z,19.16
2019-02-15T14:44:25.307Z,19.19
2019-02-15T14:47:00.069Z,19.03
2019-02-15T14:49:34.770Z,19.49
2019-02-15T14:52:09.876Z,19.68
2019-02-15T14:54:44.994Z,19.80
2019-02-15T14:57:20.008Z,19.95
2019-02-15T14:59:54.935Z,19.51
2019-02-15T15:02:29.881Z,19.92
2019-02-15T15:05:06.519Z,20.25
2019-02-15T15:07:41.326Z,20.42
2019-02-15T15:10:16.072Z,20.42
2019-02-15T15:12:50.953Z,19.78
2019-02-15T15:15:25.639Z,20.13
2019-02-15T15:18:10.716Z,19.88
2019-02-15T15:20:37.316Z,20.28
2019-02-15T15:23:12.632Z,20.30
2019-02-15T15:25:46.929Z,20.52
2019-02-15T15:28:21.674Z,20.91
2019-02-15T15:31:13.443Z,20.64
2019-02-15T15:33:48.534Z,20.64
2019-02-15T15:36:23.327Z,20.82
2019-02-15T15:38:58.143Z,21.01
2019-02-15T15:41:32.997Z,21.09
2019-02-15T15:44:08.062Z,21.48
2019-02-15T15:46:43.331Z,21.50
2019-02-15T15:49:18.527Z,21.81
2019-02-15T15:51:53.318Z,22.05
2019-02-15T15:54:28.188Z,21.90
2019-02-15T15:57:02.958Z,22.20
2019-02-15T15:59:37.670Z,22.62
2019-02-15T16:02:11.462Z,22.38
2019-02-15T16:04:46.066Z,22.38
2019-02-15T16:07:21.052Z,22.56
2019-02-15T16:09:56.166Z,22.97
2019-02-15T16:12:31.025Z,22.69
2019-02-15T16:15:07.029Z,23.12
2019-02-15T16:17:42.821Z,22.85
2019-02-15T16:20:17.944Z,23.29
2019-02-15T16:22:52.630Z,23.88
2019-02-15T16:25:26.834Z,24.86
2019-02-15T16:28:01.990Z,24.86
2019-02-15T16:31:07.035Z,25.32
2019-02-15T16:33:41.854Z,26.03
2019-02-15T16:36:16.687Z,26.42
2019-02-15T16:38:51.592Z,26.67
2019-02-15T16:41:25.929Z,26.74
2019-02-15T16:44:01.035Z,26.96
2019-02-15T16:47:01.187Z,27.93
2019-02-15T16:51:06.690Z,28.62
2019-02-15T16:53:43.067Z,28.42
2019-02-15T16:56:18.340Z,28.68
2019-02-15T16:58:53.790Z,29.25
2019-02-15T17:01:28.655Z,29.39
2019-02-15T17:04:03.045Z,30.37
2019-02-15T17:06:38.164Z,31.42
2019-02-15T17:09:17.019Z,31.69
2019-02-15T17:11:52.174Z,32.16
2019-02-15T17:14:27.522Z,32.62
2019-02-15T17:17:02.544Z,32.35
2019-02-15T17:19:36.631Z,32.35
2019-02-15T17:22:11.162Z,32.59
2019-02-15T17:24:49.096Z,33.31
2019-02-15T17:27:24.637Z,34.19
2019-02-15T17:29:59.454Z,34.68
2019-02-15T17:32:35.723Z,34.34
2019-02-15T17:35:11.337Z,34.34
2019-02-15T17:37:46.306Z,34.62
2019-02-15T17:40:21.512Z,35.66
2019-02-15T17:42:58.399Z,36.29
2019-02-15T17:45:33.320Z,36.29
2019-02-15T17:48:09.102Z,36.38
2019-02-15T17:50:44.506Z,36.86
2019-02-15T17:53:19.368Z,37.78
2019-02-15T17:55:54.334Z,37.78
2019-02-15T17:58:29.081Z,39.28
2019-02-15T18:01:04.323Z,39.48
2019-02-15T18:03:39.486Z,39.43
2019-02-15T18:06:14.500Z,38.51
2019-02-15T18:08:48.715Z,38.51
2019-02-15T18:11:23.493Z,38.48
2019-02-15T18:13:58.229Z,38.63
2019-02-15T18:16:33.110Z,38.93
2019-02-15T18:19:10.081Z,39.62
2019-02-15T18:21:45.312Z,40.59
2019-02-15T18:24:20.149Z,42.28
2019-02-15T18:26:55.541Z,43.67
2019-02-15T18:29:30.332Z,44.03
2019-02-15T18:32:05.314Z,42.79
2019-02-15T18:34:40.469Z,43.45
2019-02-15T18:37:15.112Z,43.36
2019-02-15T18:39:50.112Z,43.20
2019-02-15T18:42:25.100Z,42.82
2019-02-15T18:45:13.020Z,43.78
2019-02-15T18:47:48.203Z,45.08
2019-02-15T18:50:23.423Z,45.69
2019-02-15T18:52:58.326Z,46.46
2019-02-15T18:55:33.300Z,46.32
2019-02-15T18:58:08.317Z,46.11
2019-02-15T19:00:43.678Z,45.34
2019-02-15T19:03:19.561Z,45.97
2019-02-15T19:05:53.477Z,47.16
2019-02-15T19:08:29.168Z,47.87
2019-02-15T19:11:03.715Z,47.87
2019-02-15T19:13:39.341Z,49.59
2019-02-15T19:16:13.899Z,50.23
2019-02-15T19:18:49.554Z,48.49
2019-02-15T19:21:23.274Z,48.47
2019-02-15T19:23:57.864Z,48.47
2019-02-15T19:26:32.325Z,48.82
2019-02-15T19:29:06.823Z,48.68
2019-02-15T19:31:41.558Z,48.26
2019-02-15T19:34:15.622Z,49.03
2019-02-15T19:36:49.475Z,50.15
2019-02-15T19:39:24.098Z,49.92
2019-02-15T19:41:59.013Z,49.92
2019-02-15T19:44:33.849Z,50.23
2019-02-15T19:47:08.910Z,50.48
2019-02-15T19:49:43.559Z,51.51
2019-02-15T19:52:17.872Z,52.33
2019-02-15T19:54:52.471Z,52.33
2019-02-15T19:57:27.523Z,54.19
2019-02-15T20:00:01.299Z,54.19
2019-02-15T20:02:36.529Z,54.50
2019-02-15T20:05:11.060Z,53.28
2019-02-15T20:07:46.039Z,52.32
2019-02-15T20:10:21.807Z,52.32
2019-02-15T20:12:56.304Z,52.48
2019-02-15T20:15:31.050Z,52.31
2019-02-15T20:18:05.671Z,53.08
2019-02-15T20:20:40.174Z,52.58
2019-02-15T20:23:14.867Z,52.15
2019-02-15T20:25:49.592Z,52.30
2019-02-15T20:28:23.525Z,52.77
2019-02-15T20:31:00.969Z,53.64
2019-02-15T20:33:38.700Z,54.81
2019-02-15T20:36:33.146Z,54.49
2019-02-15T20:39:07.840Z,54.19
2019-02-15T20:41:43.861Z,54.71
2019-02-15T20:44:19.907Z,54.67
2019-02-15T20:46:54.705Z,54.80
2019-02-15T20:49:29.512Z,54.52
2019-02-15T20:52:04.096Z,55.02
2019-02-15T20:54:38.737Z,55.02
2019-02-15T20:57:13.314Z,55.67
2019-02-15T20:59:48.864Z,55.17
2019-02-15T21:02:23.960Z,56.69
2019-02-15T21:04:58.825Z,58.37
2019-02-15T21:07:34.168Z,57.89
2019-02-15T21:10:10.713Z,56.22
2019-02-15T21:12:45.516Z,55.91
2019-02-15T21:15:20.831Z,55.98
2019-02-15T21:17:55.557Z,55.98
2019-02-15T21:20:30.146Z,56.48
2019-02-15T21:23:04.633Z,56.48
2019-02-15T21:25:38.537Z,56.41
2019-02-15T21:28:13.321Z,58.36
2019-02-15T21:30:48.532Z,58.36
2019-02-15T21:33:23.333Z,57.45
2019-02-15T21:35:57.658Z,57.86
2019-02-15T21:38:32.327Z,57.22
2019-02-15T21:41:07.041Z,58.63
2019-02-15T21:43:42.137Z,58.83
2019-02-15T21:46:18.101Z,58.41
2019-02-15T21:48:52.659Z,57.51
2019-02-15T21:51:27.175Z,60.02
2019-02-15T21:54:01.808Z,60.56
2019-02-15T21:56:36.698Z,60.15
2019-02-15T21:59:11.113Z,59.02
2019-02-15T22:01:46.673Z,58.24
2019-02-15T22:04:21.051Z,59.06
2019-02-15T22:06:56.465Z,59.41
2019-02-15T22:09:31.147Z,58.58
2019-02-15T22:12:06.069Z,58.58
2019-02-15T22:14:41.124Z,58.40
2019-02-15T22:17:15.975Z,57.84
2019-02-15T22:19:50.617Z,58.03
2019-02-15T22:22:27.329Z,58.53
2019-02-15T22:25:01.985Z,59.34
2019-02-15T22:27:40.829Z,59.70
2019-02-15T22:30:16.309Z,61.63
2019-02-15T22:32:50.844Z,60.37
2019-02-15T22:35:25.644Z,60.11
2019-02-15T22:37:59.444Z,59.98
2019-02-15T22:40:37.802Z,60.37
2019-02-15T22:43:24.321Z,60.79
2019-02-15T22:45:58.983Z,60.38
2019-02-15T22:48:33.958Z,62.14
2019-02-15T22:51:08.666Z,62.60
2019-02-15T22:53:43.017Z,62.41
2019-02-15T22:56:17.603Z,64.44
2019-02-15T22:58:51.513Z,64.36
2019-02-15T23:01:26.546Z,63.28
2019-02-15T23:04:01.552Z,63.28
2019-02-15T23:06:36.643Z,60.77
2019-02-15T23:09:21.902Z,60.77
2019-02-15T23:11:56.994Z,61.98
2019-02-15T23:14:31.580Z,61.85
2019-02-15T23:17:05.553Z,63.98
2019-02-15T23:19:40.027Z,62.77
2019-02-15T23:22:14.921Z,62.77
2019-02-15T23:24:49.519Z,63.90
2019-02-15T23:27:24.565Z,64.66
2019-02-15T23:29:58.553Z,64.66
2019-02-15T23:32:33.151Z,62.38
2019-02-15T23:35:07.838Z,62.38
2019-02-15T23:37:42.567Z,62.24
2019-02-15T23:40:17.046Z,63.34
2019-02-15T23:42:52.085Z,65.46
2019-02-15T23:45:27.339Z,68.45
2019-02-15T23:48:02.555Z,67.72
2019-02-15T23:50:38.664Z,67.68
2019-02-15T23:53:13.735Z,65.97
2019-02-15T23:55:48.632Z,65.97
2019-02-15T23:58:22.999Z,67.54
